UAE6K VRMM-OMDB
Flight info
| Callsign | UAE6K |
|---|---|
| Flight time | N/A |
| Altitude | 38000 |
| Route | ELBET1A ELBET L894 KITAL P570 ITURA M762 VAXAS/N0406F240 M762 MIVEK P574 IMPED |
| Aircraft | B77W/H-SDE1E2E3FGHIJ2J3J4J5M1RWXY/LB1D1 |
Departure
| Time | N/A |
|---|---|
| Airport | Velana International Airport (VRMM) |
Arrival
| Time | 2026-05-05 21:09 |
|---|---|
| Airport | Dubai International Airport (OMDB) |
| Time | Latitude | Longitude | Altitude | Speed | Heading |
|---|---|---|---|---|---|
| 2026-05-05 20:45 | 24.06018 | 57.16748 | 37717 ft | 446 kts | 304° |
| 2026-05-05 20:46 | 24.07886 | 57.14108 | 37035 ft | 445 kts | 304° |
| 2026-05-05 20:46 | 24.09786 | 57.11419 | 36157 ft | 448 kts | 305° |
| 2026-05-05 20:46 | 24.11689 | 57.08725 | 35382 ft | 448 kts | 305° |
| 2026-05-05 20:46 | 24.13607 | 57.06007 | 34619 ft | 448 kts | 305° |
| 2026-05-05 20:47 | 24.15505 | 57.03318 | 33853 ft | 448 kts | 306° |
| 2026-05-05 20:47 | 24.17402 | 57.00628 | 33081 ft | 448 kts | 306° |
| 2026-05-05 20:47 | 24.19296 | 56.97941 | 32298 ft | 449 kts | 306° |
| 2026-05-05 20:47 | 24.21197 | 56.95243 | 31516 ft | 450 kts | 306° |
| 2026-05-05 20:48 | 24.23107 | 56.92529 | 30704 ft | 452 kts | 306° |
| 2026-05-05 20:48 | 24.25005 | 56.89830 | 30164 ft | 447 kts | 306° |
| 2026-05-05 20:48 | 24.26911 | 56.87120 | 29692 ft | 441 kts | 306° |
| 2026-05-05 20:48 | 24.28784 | 56.84454 | 29190 ft | 449 kts | 306° |
| 2026-05-05 20:49 | 24.30708 | 56.81712 | 28635 ft | 457 kts | 306° |
| 2026-05-05 20:49 | 24.32635 | 56.78966 | 28073 ft | 454 kts | 306° |
| 2026-05-05 20:49 | 24.34541 | 56.76249 | 27523 ft | 449 kts | 306° |
| 2026-05-05 20:49 | 24.36431 | 56.73554 | 26972 ft | 444 kts | 306° |
| 2026-05-05 20:50 | 24.38300 | 56.70887 | 26422 ft | 440 kts | 306° |
| 2026-05-05 20:50 | 24.40141 | 56.68257 | 25879 ft | 435 kts | 306° |
| 2026-05-05 20:50 | 24.41970 | 56.65643 | 25328 ft | 431 kts | 306° |
| 2026-05-05 20:50 | 24.43852 | 56.63056 | 24773 ft | 427 kts | 310° |
| 2026-05-05 20:51 | 24.45843 | 56.60693 | 24233 ft | 423 kts | 312° |
| 2026-05-05 20:51 | 24.47860 | 56.58341 | 23678 ft | 420 kts | 312° |
| 2026-05-05 20:51 | 24.49835 | 56.56038 | 23126 ft | 417 kts | 312° |
| 2026-05-05 20:51 | 24.51823 | 56.53717 | 22562 ft | 413 kts | 312° |
| 2026-05-05 20:52 | 24.53771 | 56.51440 | 22033 ft | 410 kts | 313° |
| 2026-05-05 20:52 | 24.55706 | 56.49176 | 21502 ft | 407 kts | 313° |
| 2026-05-05 20:52 | 24.57631 | 56.46923 | 20938 ft | 405 kts | 313° |
| 2026-05-05 20:52 | 24.59561 | 56.44662 | 20399 ft | 402 kts | 313° |
| 2026-05-05 20:53 | 24.61459 | 56.42437 | 19852 ft | 399 kts | 314° |
| 2026-05-05 20:53 | 24.63348 | 56.40223 | 19303 ft | 397 kts | 314° |
| 2026-05-05 20:53 | 24.65236 | 56.38007 | 18756 ft | 394 kts | 314° |
| 2026-05-05 20:53 | 24.67090 | 56.35831 | 18207 ft | 392 kts | 314° |
| 2026-05-05 20:54 | 24.69010 | 56.33687 | 17640 ft | 389 kts | 319° |
| 2026-05-05 20:54 | 24.71042 | 56.31742 | 16984 ft | 390 kts | 321° |
| 2026-05-05 20:54 | 24.73102 | 56.29828 | 16373 ft | 389 kts | 321° |
| 2026-05-05 20:54 | 24.75143 | 56.27901 | 15875 ft | 385 kts | 320° |
| 2026-05-05 20:55 | 24.77172 | 56.25976 | 15623 ft | 384 kts | 320° |
| 2026-05-05 20:55 | 24.79189 | 56.24063 | 15375 ft | 384 kts | 320° |
| 2026-05-05 20:55 | 24.81210 | 56.22149 | 15095 ft | 384 kts | 320° |
| 2026-05-05 20:55 | 24.83244 | 56.20219 | 14743 ft | 382 kts | 320° |
| 2026-05-05 20:56 | 24.85240 | 56.18327 | 14311 ft | 376 kts | 320° |
| 2026-05-05 20:56 | 24.87217 | 56.16453 | 13768 ft | 375 kts | 320° |
| 2026-05-05 20:56 | 24.89176 | 56.14595 | 13314 ft | 371 kts | 320° |
| 2026-05-05 20:56 | 24.91121 | 56.12750 | 13045 ft | 370 kts | 320° |
| 2026-05-05 20:57 | 24.93047 | 56.10922 | 12611 ft | 365 kts | 320° |
| 2026-05-05 20:57 | 24.94974 | 56.09093 | 12089 ft | 363 kts | 320° |
| 2026-05-05 20:57 | 24.96854 | 56.07301 | 11811 ft | 353 kts | 318° |
| 2026-05-05 20:57 | 24.98552 | 56.05382 | 11703 ft | 339 kts | 312° |
| 2026-05-05 20:58 | 25.00095 | 56.03498 | 11600 ft | 326 kts | 311° |
| 2026-05-05 20:58 | 25.01578 | 56.01676 | 11464 ft | 315 kts | 311° |
| 2026-05-05 20:58 | 25.03015 | 55.99914 | 11339 ft | 305 kts | 311° |
| 2026-05-05 20:58 | 25.04425 | 55.98186 | 11196 ft | 295 kts | 311° |
| 2026-05-05 20:59 | 25.05766 | 55.96544 | 11072 ft | 286 kts | 311° |
| 2026-05-05 20:59 | 25.07074 | 55.94942 | 10936 ft | 278 kts | 311° |
| 2026-05-05 20:59 | 25.08378 | 55.93342 | 10808 ft | 278 kts | 311° |
| 2026-05-05 20:59 | 25.09668 | 55.91759 | 10672 ft | 279 kts | 311° |
| 2026-05-05 21:00 | 25.10974 | 55.90157 | 10527 ft | 279 kts | 311° |
| 2026-05-05 21:00 | 25.12278 | 55.88555 | 10378 ft | 279 kts | 311° |
| 2026-05-05 21:00 | 25.13566 | 55.86974 | 10249 ft | 278 kts | 311° |
| 2026-05-05 21:00 | 25.14858 | 55.85387 | 10112 ft | 278 kts | 311° |
| 2026-05-05 21:01 | 25.16046 | 55.83694 | 9960 ft | 278 kts | 302° |
| 2026-05-05 21:01 | 25.16771 | 55.81734 | 9603 ft | 281 kts | 277° |
| 2026-05-05 21:01 | 25.16635 | 55.79603 | 9125 ft | 283 kts | 249° |
| 2026-05-05 21:01 | 25.15756 | 55.77666 | 8865 ft | 277 kts | 243° |
| 2026-05-05 21:02 | 25.14966 | 55.75751 | 8551 ft | 276 kts | 245° |
| 2026-05-05 21:02 | 25.14203 | 55.73800 | 8261 ft | 275 kts | 246° |
| 2026-05-05 21:02 | 25.13458 | 55.71888 | 7851 ft | 273 kts | 246° |
| 2026-05-05 21:02 | 25.12706 | 55.69958 | 7420 ft | 272 kts | 246° |
| 2026-05-05 21:03 | 25.11969 | 55.68068 | 7032 ft | 268 kts | 246° |
| 2026-05-05 21:03 | 25.11252 | 55.66228 | 6867 ft | 251 kts | 246° |
| 2026-05-05 21:03 | 25.10719 | 55.64490 | 6800 ft | 231 kts | 259° |
| 2026-05-05 21:03 | 25.10790 | 55.62826 | 6711 ft | 209 kts | 288° |
| 2026-05-05 21:04 | 25.11370 | 55.61396 | 6228 ft | 203 kts | 297° |
| 2026-05-05 21:04 | 25.12060 | 55.60064 | 5648 ft | 203 kts | 300° |
| 2026-05-05 21:04 | 25.12792 | 55.58741 | 5039 ft | 204 kts | 301° |
| 2026-05-05 21:04 | 25.13538 | 55.57422 | 4445 ft | 205 kts | 302° |
| 2026-05-05 21:05 | 25.14292 | 55.56094 | 3879 ft | 204 kts | 302° |
| 2026-05-05 21:05 | 25.15044 | 55.54764 | 3172 ft | 210 kts | 302° |
| 2026-05-05 21:05 | 25.15806 | 55.53405 | 2886 ft | 211 kts | 303° |
| 2026-05-05 21:05 | 25.16557 | 55.52066 | 2622 ft | 199 kts | 303° |
| 2026-05-05 21:06 | 25.17269 | 55.50795 | 2377 ft | 187 kts | 304° |
| 2026-05-05 21:06 | 25.17929 | 55.49617 | 2145 ft | 178 kts | 304° |
| 2026-05-05 21:06 | 25.18571 | 55.48472 | 1923 ft | 173 kts | 304° |
| 2026-05-05 21:06 | 25.19202 | 55.47340 | 1698 ft | 174 kts | 304° |
| 2026-05-05 21:07 | 25.19827 | 55.46216 | 1466 ft | 164 kts | 304° |
| 2026-05-05 21:07 | 25.20409 | 55.45173 | 1257 ft | 156 kts | 304° |
| 2026-05-05 21:07 | 25.20975 | 55.44161 | 1059 ft | 154 kts | 304° |
| 2026-05-05 21:07 | 25.21531 | 55.43163 | 860 ft | 152 kts | 304° |
| 2026-05-05 21:08 | 25.22086 | 55.42167 | 655 ft | 151 kts | 304° |
| 2026-05-05 21:08 | 25.22634 | 55.41187 | 461 ft | 150 kts | 304° |
| 2026-05-05 21:08 | 25.23180 | 55.40208 | 258 ft | 147 kts | 304° |
| 2026-05-05 21:08 | 25.23727 | 55.39241 | 87 ft | 146 kts | 303° |
| 2026-05-05 21:09 | 25.24201 | 55.38388 | 50 ft | 113 kts | 301° |
| 2026-05-05 21:09 | 25.24550 | 55.37758 | 37 ft | 78 kts | 302° |
| 2026-05-05 21:09 | 25.24738 | 55.37403 | 33 ft | 37 kts | 294° |
| 2026-05-05 21:09 | 25.24789 | 55.37146 | 32 ft | 32 kts | 272° |
| 2026-05-05 21:10 | 25.24795 | 55.36992 | 32 ft | 11 kts | 277° |
| 2026-05-05 21:10 | 25.24827 | 55.36894 | 31 ft | 16 kts | 296° |
| 2026-05-05 21:10 | 25.24865 | 55.36761 | 30 ft | 20 kts | 283° |
| 2026-05-05 21:10 | 25.24920 | 55.36610 | 29 ft | 22 kts | 300° |
| 2026-05-05 21:11 | 25.24978 | 55.36467 | 28 ft | 18 kts | 276° |
| 2026-05-05 21:11 | 25.24983 | 55.36346 | 28 ft | 13 kts | 277° |
| 2026-05-05 21:11 | 25.24991 | 55.36274 | 28 ft | 7 kts | 244° |
| 2026-05-05 21:11 | 25.24954 | 55.36243 | 28 ft | 6 kts | 211° |
| 2026-05-05 21:12 | 25.24930 | 55.36228 | 28 ft | 0 kts | 211° |